sensor_id;sensor_type;location;lat;lon;timestamp;P1;durP1;ratioP1;P2;durP2;ratioP2
44126;SDS011;29786;50.798;7.302;2023-07-24T00:00:19;3.5;;;2.3;;
44126;SDS011;29786;50.798;7.302;2023-07-24T00:01:18;4.3;;;2.4;;
44126;SDS011;29786;50.798;7.302;2023-07-24T00:02:19;3.6;;;2.4;;
44126;SDS011;29786;50.798;7.302;2023-07-24T00:03:19;3.2;;;2.3;;
44126;SDS011;29786;50.798;7.302;2023-07-24T00:04:18;2.9;;;2.6;;
44126;SDS011;29786;50.798;7.302;2023-07-24T00:05:19;4.2;;;3.1;;
44126;SDS011;29786;50.798;7.302;2023-07-24T00:06:18;4.3;;;2.4;;
44126;SDS011;29786;50.798;7.302;2023-07-24T00:07:18;3.4;;;2.6;;
44126;SDS011;29786;50.798;7.302;2023-07-24T00:08:19;3.1;;;2.4;;
44126;SDS011;29786;50.798;7.302;2023-07-24T00:09:19;3.7;;;2.4;;
44126;SDS011;29786;50.798;7.302;2023-07-24T00:10:18;3.3;;;2.7;;
44126;SDS011;29786;50.798;7.302;2023-07-24T00:11:18;3.3;;;2.3;;
44126;SDS011;29786;50.798;7.302;2023-07-24T00:12:18;3;;;2.5;;
44126;SDS011;29786;50.798;7.302;2023-07-24T00:13:19;4.4;;;2.7;;
44126;SDS011;29786;50.798;7.302;2023-07-24T00:14:19;2.9;;;2.6;;
44126;SDS011;29786;50.798;7.302;2023-07-24T00:15:19;3.9;;;2.4;;
44126;SDS011;29786;50.798;7.302;2023-07-24T00:16:19;4.6;;;2.4;;
44126;SDS011;29786;50.798;7.302;2023-07-24T00:17:19;2.6;;;2.3;;
44126;SDS011;29786;50.798;7.302;2023-07-24T00:18:19;7.2;;;2.6;;
44126;SDS011;29786;50.798;7.302;2023-07-24T00:19:19;2.7;;;2.3;;
44126;SDS011;29786;50.798;7.302;2023-07-24T00:20:19;3;;;2.7;;
44126;SDS011;29786;50.798;7.302;2023-07-24T00:21:19;3.5;;;2.6;;
44126;SDS011;29786;50.798;7.302;2023-07-24T00:22:18;3.4;;;2.7;;
44126;SDS011;29786;50.798;7.302;2023-07-24T00:23:18;2.9;;;2.4;;
44126;SDS011;29786;50.798;7.302;2023-07-24T00:24:19;3.9;;;2.6;;
44126;SDS011;29786;50.798;7.302;2023-07-24T00:25:19;4.1;;;2.7;;
44126;SDS011;29786;50.798;7.302;2023-07-24T00:26:18;4.6;;;2.6;;
44126;SDS011;29786;50.798;7.302;2023-07-24T00:27:18;3.1;;;2.4;;
44126;SDS011;29786;50.798;7.302;2023-07-24T00:28:18;5.2;;;2.6;;
44126;SDS011;29786;50.798;7.302;2023-07-24T00:29:18;3.7;;;2.5;;
44126;SDS011;29786;50.798;7.302;2023-07-24T00:30:18;3.7;;;2.2;;
44126;SDS011;29786;50.798;7.302;2023-07-24T00:31:18;4;;;2.8;;
44126;SDS011;29786;50.798;7.302;2023-07-24T00:32:18;3.4;;;2.6;;
44126;SDS011;29786;50.798;7.302;2023-07-24T00:33:19;2.8;;;2.6;;
44126;SDS011;29786;50.798;7.302;2023-07-24T00:34:19;3.2;;;2.3;;
44126;SDS011;29786;50.798;7.302;2023-07-24T00:35:18;2.7;;;2.4;;
44126;SDS011;29786;50.798;7.302;2023-07-24T00:36:18;3.6;;;2.4;;
44126;SDS011;29786;50.798;7.302;2023-07-24T00:37:18;3.9;;;2.4;;
44126;SDS011;29786;50.798;7.302;2023-07-24T00:38:19;3.3;;;2.3;;
44126;SDS011;29786;50.798;7.302;2023-07-24T00:39:18;6;;;2.7;;
44126;SDS011;29786;50.798;7.302;2023-07-24T00:40:19;3.8;;;2.3;;
44126;SDS011;29786;50.798;7.302;2023-07-24T00:41:19;5.2;;;2.5;;
44126;SDS011;29786;50.798;7.302;2023-07-24T00:42:18;3.6;;;2.7;;
44126;SDS011;29786;50.798;7.302;2023-07-24T00:43:18;6.2;;;2.7;;
44126;SDS011;29786;50.798;7.302;2023-07-24T00:44:18;2.9;;;2.5;;
44126;SDS011;29786;50.798;7.302;2023-07-24T00:45:19;4.4;;;2.6;;
44126;SDS011;29786;50.798;7.302;2023-07-24T00:46:19;6.1;;;2.8;;
44126;SDS011;29786;50.798;7.302;2023-07-24T00:47:18;3.7;;;2.5;;
44126;SDS011;29786;50.798;7.302;2023-07-24T00:48:19;4;;;2.3;;
44126;SDS011;29786;50.798;7.302;2023-07-24T00:49:18;3.6;;;2.6;;
44126;SDS011;29786;50.798;7.302;2023-07-24T00:50:19;4.1;;;2.5;;
44126;SDS011;29786;50.798;7.302;2023-07-24T00:51:18;4.6;;;2.6;;
44126;SDS011;29786;50.798;7.302;2023-07-24T00:52:18;3.7;;;2.4;;
44126;SDS011;29786;50.798;7.302;2023-07-24T00:53:19;4.3;;;2.4;;
44126;SDS011;29786;50.798;7.302;2023-07-24T00:54:18;7.7;;;2.5;;
44126;SDS011;29786;50.798;7.302;2023-07-24T00:55:18;4.4;;;2.7;;
44126;SDS011;29786;50.798;7.302;2023-07-24T00:56:19;2.6;;;2.4;;
44126;SDS011;29786;50.798;7.302;2023-07-24T00:57:18;4;;;2.6;;
44126;SDS011;29786;50.798;7.302;2023-07-24T00:58:19;4.6;;;2.7;;
44126;SDS011;29786;50.798;7.302;2023-07-24T00:59:18;3.6;;;2.7;;
44126;SDS011;29786;50.798;7.302;2023-07-24T01:00:19;5.4;;;2.6;;
44126;SDS011;29786;50.798;7.302;2023-07-24T01:01:19;3.3;;;2.5;;
44126;SDS011;29786;50.798;7.302;2023-07-24T01:02:19;4;;;2.4;;
44126;SDS011;29786;50.798;7.302;2023-07-24T01:03:18;4.8;;;3;;
44126;SDS011;29786;50.798;7.302;2023-07-24T01:04:19;4.9;;;2.5;;
44126;SDS011;29786;50.798;7.302;2023-07-24T01:05:19;4;;;2.8;;
44126;SDS011;29786;50.798;7.302;2023-07-24T01:06:18;4.4;;;2.6;;
44126;SDS011;29786;50.798;7.302;2023-07-24T01:07:19;4;;;2.6;;
44126;SDS011;29786;50.798;7.302;2023-07-24T01:08:18;4.8;;;3;;
44126;SDS011;29786;50.798;7.302;2023-07-24T01:09:18;4.3;;;2.5;;
44126;SDS011;29786;50.798;7.302;2023-07-24T01:10:19;4.2;;;2.9;;
44126;SDS011;29786;50.798;7.302;2023-07-24T01:11:19;3.2;;;2.8;;
44126;SDS011;29786;50.798;7.302;2023-07-24T01:12:21;4.1;;;2.6;;
44126;SDS011;29786;50.798;7.302;2023-07-24T01:13:21;2.6;;;2.3;;
44126;SDS011;29786;50.798;7.302;2023-07-24T01:14:21;2.8;;;2.5;;
44126;SDS011;29786;50.798;7.302;2023-07-24T01:15:22;3;;;2.6;;
44126;SDS011;29786;50.798;7.302;2023-07-24T01:16:19;4;;;2.8;;
44126;SDS011;29786;50.798;7.302;2023-07-24T01:17:20;6;;;2.8;;
44126;SDS011;29786;50.798;7.302;2023-07-24T01:18:18;5.1;;;2.9;;
44126;SDS011;29786;50.798;7.302;2023-07-24T01:19:23;3.6;;;2.7;;
44126;SDS011;29786;50.798;7.302;2023-07-24T01:20:18;4.2;;;2.2;;
44126;SDS011;29786;50.798;7.302;2023-07-24T01:21:20;6;;;2.8;;
44126;SDS011;29786;50.798;7.302;2023-07-24T01:22:38;3.4;;;2.5;;
44126;SDS011;29786;50.798;7.302;2023-07-24T01:24:23;3.6;;;2.7;;
44126;SDS011;29786;50.798;7.302;2023-07-24T01:24:27;4.8;;;2.7;;
44126;SDS011;29786;50.798;7.302;2023-07-24T01:25:25;3.3;;;2.4;;
44126;SDS011;29786;50.798;7.302;2023-07-24T01:26:19;4.1;;;2.8;;
44126;SDS011;29786;50.798;7.302;2023-07-24T01:27:20;2.9;;;2.6;;
44126;SDS011;29786;50.798;7.302;2023-07-24T01:28:18;6.4;;;3.3;;
44126;SDS011;29786;50.798;7.302;2023-07-24T01:29:18;3.5;;;2.5;;
44126;SDS011;29786;50.798;7.302;2023-07-24T01:30:19;3.8;;;2.5;;
44126;SDS011;29786;50.798;7.302;2023-07-24T01:31:18;3.1;;;2.6;;
44126;SDS011;29786;50.798;7.302;2023-07-24T01:32:19;4.8;;;3.4;;
44126;SDS011;29786;50.798;7.302;2023-07-24T01:33:19;4.8;;;3.1;;
44126;SDS011;29786;50.798;7.302;2023-07-24T01:34:19;5;;;2.8;;
44126;SDS011;29786;50.798;7.302;2023-07-24T01:35:19;4;;;2.7;;
44126;SDS011;29786;50.798;7.302;2023-07-24T01:36:18;5;;;2.9;;
44126;SDS011;29786;50.798;7.302;2023-07-24T01:37:19;4.1;;;2.4;;
44126;SDS011;29786;50.798;7.302;2023-07-24T01:38:18;4.4;;;2.9;;
44126;SDS011;29786;50.798;7.302;2023-07-24T01:39:18;4.2;;;2.8;;
44126;SDS011;29786;50.798;7.302;2023-07-24T01:40:19;5.6;;;3.2;;
44126;SDS011;29786;50.798;7.302;2023-07-24T01:41:19;5.5;;;3.1;;
44126;SDS011;29786;50.798;7.302;2023-07-24T01:42:19;5.4;;;2.8;;
44126;SDS011;29786;50.798;7.302;2023-07-24T01:43:18;5.3;;;2.8;;
44126;SDS011;29786;50.798;7.302;2023-07-24T01:44:20;5.1;;;3.1;;
44126;SDS011;29786;50.798;7.302;2023-07-24T01:45:19;4.8;;;3.2;;
44126;SDS011;29786;50.798;7.302;2023-07-24T01:46:19;3.6;;;3;;
44126;SDS011;29786;50.798;7.302;2023-07-24T01:47:18;3.4;;;2.6;;
44126;SDS011;29786;50.798;7.302;2023-07-24T01:48:19;4.7;;;2.7;;
44126;SDS011;29786;50.798;7.302;2023-07-24T01:49:18;5.2;;;2.8;;
44126;SDS011;29786;50.798;7.302;2023-07-24T01:50:18;6.4;;;3.3;;
44126;SDS011;29786;50.798;7.302;2023-07-24T01:51:19;5;;;3.2;;
44126;SDS011;29786;50.798;7.302;2023-07-24T01:52:19;4.2;;;2.9;;
44126;SDS011;29786;50.798;7.302;2023-07-24T01:53:18;4.1;;;2.8;;
44126;SDS011;29786;50.798;7.302;2023-07-24T01:54:18;5.5;;;2.7;;
44126;SDS011;29786;50.798;7.302;2023-07-24T01:55:18;5.2;;;2.9;;
44126;SDS011;29786;50.798;7.302;2023-07-24T01:56:18;3.7;;;2.8;;
44126;SDS011;29786;50.798;7.302;2023-07-24T01:57:18;5.4;;;2.9;;
44126;SDS011;29786;50.798;7.302;2023-07-24T01:58:18;3.6;;;2.6;;
44126;SDS011;29786;50.798;7.302;2023-07-24T01:59:18;4.7;;;3;;
44126;SDS011;29786;50.798;7.302;2023-07-24T02:00:19;4;;;2.8;;
44126;SDS011;29786;50.798;7.302;2023-07-24T02:01:17;6.4;;;3.1;;
44126;SDS011;29786;50.798;7.302;2023-07-24T02:02:18;4.3;;;3;;
44126;SDS011;29786;50.798;7.302;2023-07-24T02:03:18;5.9;;;3.2;;
44126;SDS011;29786;50.798;7.302;2023-07-24T02:04:19;4.9;;;2.9;;
44126;SDS011;29786;50.798;7.302;2023-07-24T02:05:18;5;;;3;;
44126;SDS011;29786;50.798;7.302;2023-07-24T02:06:19;4.4;;;2.8;;
44126;SDS011;29786;50.798;7.302;2023-07-24T02:07:18;3.6;;;2.6;;
44126;SDS011;29786;50.798;7.302;2023-07-24T02:08:19;3.4;;;2.7;;
44126;SDS011;29786;50.798;7.302;2023-07-24T02:09:19;4.3;;;3;;
44126;SDS011;29786;50.798;7.302;2023-07-24T02:10:19;3.7;;;2.6;;
44126;SDS011;29786;50.798;7.302;2023-07-24T02:11:18;4.2;;;3;;
44126;SDS011;29786;50.798;7.302;2023-07-24T02:12:18;5;;;3;;
44126;SDS011;29786;50.798;7.302;2023-07-24T02:13:18;5.9;;;2.9;;
44126;SDS011;29786;50.798;7.302;2023-07-24T02:14:19;3.3;;;2.9;;
44126;SDS011;29786;50.798;7.302;2023-07-24T02:15:18;4.9;;;2.8;;
44126;SDS011;29786;50.798;7.302;2023-07-24T02:16:18;5.3;;;2.9;;
44126;SDS011;29786;50.798;7.302;2023-07-24T02:17:19;3.6;;;3.1;;
44126;SDS011;29786;50.798;7.302;2023-07-24T02:18:18;5.5;;;3.3;;
44126;SDS011;29786;50.798;7.302;2023-07-24T02:19:19;3.8;;;3;;
44126;SDS011;29786;50.798;7.302;2023-07-24T02:20:19;5.2;;;3;;
44126;SDS011;29786;50.798;7.302;2023-07-24T02:21:19;5.3;;;3.1;;
44126;SDS011;29786;50.798;7.302;2023-07-24T02:22:18;4.9;;;3;;
44126;SDS011;29786;50.798;7.302;2023-07-24T02:23:18;4.3;;;2.9;;
44126;SDS011;29786;50.798;7.302;2023-07-24T02:24:18;3.5;;;2.9;;
44126;SDS011;29786;50.798;7.302;2023-07-24T02:25:18;3.9;;;3;;
44126;SDS011;29786;50.798;7.302;2023-07-24T02:26:18;3.2;;;2.7;;
44126;SDS011;29786;50.798;7.302;2023-07-24T02:27:26;3.9;;;3.1;;
44126;SDS011;29786;50.798;7.302;2023-07-24T02:28:18;3.2;;;2.6;;
44126;SDS011;29786;50.798;7.302;2023-07-24T02:29:19;4.3;;;3.1;;
44126;SDS011;29786;50.798;7.302;2023-07-24T02:30:19;5.3;;;2.7;;
44126;SDS011;29786;50.798;7.302;2023-07-24T02:31:18;4.7;;;3;;
44126;SDS011;29786;50.798;7.302;2023-07-24T02:32:18;3.8;;;2.8;;
44126;SDS011;29786;50.798;7.302;2023-07-24T02:33:18;4.4;;;3;;
44126;SDS011;29786;50.798;7.302;2023-07-24T02:34:18;5.8;;;3.2;;
44126;SDS011;29786;50.798;7.302;2023-07-24T02:35:18;4.1;;;3;;
44126;SDS011;29786;50.798;7.302;2023-07-24T02:36:19;5.5;;;2.8;;
44126;SDS011;29786;50.798;7.302;2023-07-24T02:37:19;6.1;;;3.1;;
44126;SDS011;29786;50.798;7.302;2023-07-24T02:38:18;4.6;;;3;;
44126;SDS011;29786;50.798;7.302;2023-07-24T02:39:20;5.3;;;3.1;;
44126;SDS011;29786;50.798;7.302;2023-07-24T02:40:19;4.4;;;2.7;;
44126;SDS011;29786;50.798;7.302;2023-07-24T02:42:19;3.4;;;2.9;;
44126;SDS011;29786;50.798;7.302;2023-07-24T02:43:19;4.6;;;3;;
44126;SDS011;29786;50.798;7.302;2023-07-24T02:44:19;3.9;;;3.1;;
44126;SDS011;29786;50.798;7.302;2023-07-24T02:45:18;3.6;;;3;;
44126;SDS011;29786;50.798;7.302;2023-07-24T02:46:19;6.3;;;3.4;;
44126;SDS011;29786;50.798;7.302;2023-07-24T02:47:19;4.7;;;3;;
44126;SDS011;29786;50.798;7.302;2023-07-24T02:48:19;4;;;3;;
44126;SDS011;29786;50.798;7.302;2023-07-24T02:49:18;4.2;;;3.1;;
44126;SDS011;29786;50.798;7.302;2023-07-24T02:50:19;3.5;;;3;;
44126;SDS011;29786;50.798;7.302;2023-07-24T02:51:18;4.1;;;3.3;;
44126;SDS011;29786;50.798;7.302;2023-07-24T02:52:19;6.5;;;3.1;;
44126;SDS011;29786;50.798;7.302;2023-07-24T02:53:19;4.6;;;3;;
44126;SDS011;29786;50.798;7.302;2023-07-24T02:54:18;4;;;3.1;;
44126;SDS011;29786;50.798;7.302;2023-07-24T02:55:19;4.9;;;3.1;;
44126;SDS011;29786;50.798;7.302;2023-07-24T02:56:18;5.3;;;2.9;;
44126;SDS011;29786;50.798;7.302;2023-07-24T02:57:19;4.9;;;3.3;;
44126;SDS011;29786;50.798;7.302;2023-07-24T02:58:19;4.8;;;3;;
44126;SDS011;29786;50.798;7.302;2023-07-24T02:59:19;4.2;;;3;;
44126;SDS011;29786;50.798;7.302;2023-07-24T03:00:18;4.3;;;3.1;;
44126;SDS011;29786;50.798;7.302;2023-07-24T03:01:19;5.9;;;3.3;;
44126;SDS011;29786;50.798;7.302;2023-07-24T03:02:18;4.1;;;2.8;;
44126;SDS011;29786;50.798;7.302;2023-07-24T03:03:18;5;;;3.2;;
44126;SDS011;29786;50.798;7.302;2023-07-24T03:04:19;4.2;;;2.9;;
44126;SDS011;29786;50.798;7.302;2023-07-24T03:05:18;5.8;;;3.2;;
44126;SDS011;29786;50.798;7.302;2023-07-24T03:06:18;4;;;3.1;;
44126;SDS011;29786;50.798;7.302;2023-07-24T03:07:19;5;;;3.1;;
44126;SDS011;29786;50.798;7.302;2023-07-24T03:08:19;5.7;;;3.1;;
44126;SDS011;29786;50.798;7.302;2023-07-24T03:09:18;4.7;;;3.2;;
44126;SDS011;29786;50.798;7.302;2023-07-24T03:10:18;5.4;;;3.4;;
44126;SDS011;29786;50.798;7.302;2023-07-24T03:11:18;4.3;;;3;;
44126;SDS011;29786;50.798;7.302;2023-07-24T03:12:19;4.4;;;3.3;;
44126;SDS011;29786;50.798;7.302;2023-07-24T03:13:19;6.3;;;3.4;;
44126;SDS011;29786;50.798;7.302;2023-07-24T03:14:19;5.1;;;3.2;;
44126;SDS011;29786;50.798;7.302;2023-07-24T03:15:19;5.5;;;3.3;;
44126;SDS011;29786;50.798;7.302;2023-07-24T03:16:18;5.8;;;3.4;;
44126;SDS011;29786;50.798;7.302;2023-07-24T03:17:19;4.8;;;3.4;;
44126;SDS011;29786;50.798;7.302;2023-07-24T03:18:18;6.2;;;3.4;;
44126;SDS011;29786;50.798;7.302;2023-07-24T03:19:18;4.8;;;3.2;;
44126;SDS011;29786;50.798;7.302;2023-07-24T03:20:19;5;;;3.3;;
44126;SDS011;29786;50.798;7.302;2023-07-24T03:21:19;5.2;;;3.2;;
44126;SDS011;29786;50.798;7.302;2023-07-24T03:22:18;5.5;;;3.2;;
44126;SDS011;29786;50.798;7.302;2023-07-24T03:23:19;4.5;;;3;;
44126;SDS011;29786;50.798;7.302;2023-07-24T03:24:19;5.3;;;3;;
44126;SDS011;29786;50.798;7.302;2023-07-24T03:25:18;6.1;;;3.3;;
44126;SDS011;29786;50.798;7.302;2023-07-24T03:26:19;4.3;;;3.1;;
44126;SDS011;29786;50.798;7.302;2023-07-24T03:27:18;6.3;;;3.2;;
44126;SDS011;29786;50.798;7.302;2023-07-24T03:28:19;6.1;;;3.2;;
44126;SDS011;29786;50.798;7.302;2023-07-24T03:29:19;6.6;;;3.6;;
44126;SDS011;29786;50.798;7.302;2023-07-24T03:30:18;4.2;;;3.3;;
44126;SDS011;29786;50.798;7.302;2023-07-24T03:31:19;6.1;;;3.5;;
44126;SDS011;29786;50.798;7.302;2023-07-24T03:32:18;4.9;;;3.5;;
44126;SDS011;29786;50.798;7.302;2023-07-24T03:33:19;4.3;;;3.1;;
44126;SDS011;29786;50.798;7.302;2023-07-24T03:34:18;7.1;;;3.6;;
44126;SDS011;29786;50.798;7.302;2023-07-24T03:35:18;4.8;;;3.4;;
44126;SDS011;29786;50.798;7.302;2023-07-24T03:36:18;4.1;;;3.4;;
44126;SDS011;29786;50.798;7.302;2023-07-24T03:37:18;4;;;2.9;;
44126;SDS011;29786;50.798;7.302;2023-07-24T03:38:18;6;;;3.8;;
44126;SDS011;29786;50.798;7.302;2023-07-24T03:39:18;4.2;;;3.5;;
44126;SDS011;29786;50.798;7.302;2023-07-24T03:40:18;5.3;;;3.4;;
44126;SDS011;29786;50.798;7.302;2023-07-24T03:41:18;4.3;;;3.3;;
44126;SDS011;29786;50.798;7.302;2023-07-24T03:42:26;6.4;;;3.7;;
44126;SDS011;29786;50.798;7.302;2023-07-24T03:43:19;7.8;;;3.5;;
44126;SDS011;29786;50.798;7.302;2023-07-24T03:44:19;5.6;;;3.4;;
44126;SDS011;29786;50.798;7.302;2023-07-24T03:45:18;5.5;;;3.4;;
44126;SDS011;29786;50.798;7.302;2023-07-24T03:46:19;5.4;;;3.2;;
44126;SDS011;29786;50.798;7.302;2023-07-24T03:47:18;5.8;;;3.1;;
44126;SDS011;29786;50.798;7.302;2023-07-24T03:48:19;3.9;;;3.2;;
44126;SDS011;29786;50.798;7.302;2023-07-24T03:49:19;4.6;;;3.4;;
44126;SDS011;29786;50.798;7.302;2023-07-24T03:50:18;6.9;;;4.1;;
44126;SDS011;29786;50.798;7.302;2023-07-24T03:51:19;4.2;;;3.5;;
44126;SDS011;29786;50.798;7.302;2023-07-24T03:52:19;5;;;3.5;;
44126;SDS011;29786;50.798;7.302;2023-07-24T03:53:18;4.6;;;3.6;;
44126;SDS011;29786;50.798;7.302;2023-07-24T03:54:18;6.9;;;3.7;;
44126;SDS011;29786;50.798;7.302;2023-07-24T03:55:19;5.2;;;3.5;;
44126;SDS011;29786;50.798;7.302;2023-07-24T03:56:19;5.1;;;3.3;;
44126;SDS011;29786;50.798;7.302;2023-07-24T03:57:19;5.3;;;3.6;;
44126;SDS011;29786;50.798;7.302;2023-07-24T03:58:18;4.6;;;3.7;;
44126;SDS011;29786;50.798;7.302;2023-07-24T03:59:18;5.6;;;3.3;;
44126;SDS011;29786;50.798;7.302;2023-07-24T04:00:18;5.7;;;3.5;;
44126;SDS011;29786;50.798;7.302;2023-07-24T04:01:18;5.5;;;3.7;;
44126;SDS011;29786;50.798;7.302;2023-07-24T04:02:19;5;;;3.5;;
44126;SDS011;29786;50.798;7.302;2023-07-24T04:03:18;5;;;3.9;;
44126;SDS011;29786;50.798;7.302;2023-07-24T04:04:19;5;;;3.5;;
44126;SDS011;29786;50.798;7.302;2023-07-24T04:05:19;5;;;3.3;;
44126;SDS011;29786;50.798;7.302;2023-07-24T04:06:18;3.8;;;3.2;;
44126;SDS011;29786;50.798;7.302;2023-07-24T04:07:18;4.8;;;3.3;;
44126;SDS011;29786;50.798;7.302;2023-07-24T04:08:19;4.6;;;3.4;;
44126;SDS011;29786;50.798;7.302;2023-07-24T04:09:18;5;;;3.4;;
44126;SDS011;29786;50.798;7.302;2023-07-24T04:10:18;4.8;;;3.3;;
44126;SDS011;29786;50.798;7.302;2023-07-24T04:11:19;5.6;;;3.5;;
44126;SDS011;29786;50.798;7.302;2023-07-24T04:12:19;5.9;;;3.3;;
44126;SDS011;29786;50.798;7.302;2023-07-24T04:13:19;5;;;3.6;;
44126;SDS011;29786;50.798;7.302;2023-07-24T04:14:18;4.5;;;3.6;;
44126;SDS011;29786;50.798;7.302;2023-07-24T04:15:19;5.1;;;4;;
44126;SDS011;29786;50.798;7.302;2023-07-24T04:16:19;6.2;;;3.6;;
44126;SDS011;29786;50.798;7.302;2023-07-24T04:17:18;5.9;;;3.7;;
44126;SDS011;29786;50.798;7.302;2023-07-24T04:18:18;5;;;3.6;;
44126;SDS011;29786;50.798;7.302;2023-07-24T04:19:18;5.3;;;3.7;;
44126;SDS011;29786;50.798;7.302;2023-07-24T04:20:19;4.9;;;3.7;;
44126;SDS011;29786;50.798;7.302;2023-07-24T04:21:19;7.3;;;3.9;;
44126;SDS011;29786;50.798;7.302;2023-07-24T04:22:19;4.8;;;4;;
44126;SDS011;29786;50.798;7.302;2023-07-24T04:23:18;5.1;;;3.6;;
44126;SDS011;29786;50.798;7.302;2023-07-24T04:24:20;5.4;;;3.7;;
44126;SDS011;29786;50.798;7.302;2023-07-24T04:25:18;5.9;;;3.9;;
44126;SDS011;29786;50.798;7.302;2023-07-24T04:26:19;6.9;;;4;;
44126;SDS011;29786;50.798;7.302;2023-07-24T04:27:19;6.9;;;3.9;;
44126;SDS011;29786;50.798;7.302;2023-07-24T04:28:18;5.3;;;3.8;;
44126;SDS011;29786;50.798;7.302;2023-07-24T04:29:19;5.2;;;3.8;;
44126;SDS011;29786;50.798;7.302;2023-07-24T04:30:18;5.6;;;3.9;;
44126;SDS011;29786;50.798;7.302;2023-07-24T04:31:18;7.3;;;4.4;;
44126;SDS011;29786;50.798;7.302;2023-07-24T04:32:19;6.2;;;3.7;;
44126;SDS011;29786;50.798;7.302;2023-07-24T04:33:19;6.6;;;3.7;;
44126;SDS011;29786;50.798;7.302;2023-07-24T04:34:18;6.4;;;3.9;;
44126;SDS011;29786;50.798;7.302;2023-07-24T04:35:19;4.5;;;3.3;;
44126;SDS011;29786;50.798;7.302;2023-07-24T04:36:19;5.7;;;3.8;;
44126;SDS011;29786;50.798;7.302;2023-07-24T04:37:18;6;;;4.2;;
44126;SDS011;29786;50.798;7.302;2023-07-24T04:38:19;5.3;;;3.7;;
44126;SDS011;29786;50.798;7.302;2023-07-24T04:39:19;6.6;;;3.6;;
44126;SDS011;29786;50.798;7.302;2023-07-24T04:40:19;6.4;;;3.6;;
44126;SDS011;29786;50.798;7.302;2023-07-24T04:41:18;5.7;;;3.9;;
44126;SDS011;29786;50.798;7.302;2023-07-24T04:42:19;6;;;3.9;;
44126;SDS011;29786;50.798;7.302;2023-07-24T04:43:18;5;;;3.8;;
44126;SDS011;29786;50.798;7.302;2023-07-24T04:44:19;4.4;;;3.6;;
44126;SDS011;29786;50.798;7.302;2023-07-24T04:45:18;7.4;;;3.6;;
44126;SDS011;29786;50.798;7.302;2023-07-24T04:46:19;6.6;;;3.9;;
44126;SDS011;29786;50.798;7.302;2023-07-24T04:47:19;5.3;;;3.6;;
44126;SDS011;29786;50.798;7.302;2023-07-24T04:48:19;6.9;;;3.7;;
44126;SDS011;29786;50.798;7.302;2023-07-24T04:49:19;7.3;;;3.9;;
44126;SDS011;29786;50.798;7.302;2023-07-24T04:50:18;6.9;;;3.7;;
44126;SDS011;29786;50.798;7.302;2023-07-24T04:51:19;5.5;;;3.9;;
44126;SDS011;29786;50.798;7.302;2023-07-24T04:52:18;5.9;;;3.8;;
44126;SDS011;29786;50.798;7.302;2023-07-24T04:53:19;5.5;;;3.7;;
44126;SDS011;29786;50.798;7.302;2023-07-24T04:54:18;6;;;3.4;;
44126;SDS011;29786;50.798;7.302;2023-07-24T04:55:19;5.3;;;3.7;;
44126;SDS011;29786;50.798;7.302;2023-07-24T04:56:18;6.2;;;4.1;;
44126;SDS011;29786;50.798;7.302;2023-07-24T04:57:19;6.3;;;3.6;;
44126;SDS011;29786;50.798;7.302;2023-07-24T04:58:18;6.9;;;4;;
44126;SDS011;29786;50.798;7.302;2023-07-24T04:59:19;4.2;;;3.3;;
44126;SDS011;29786;50.798;7.302;2023-07-24T05:00:18;6.9;;;4.1;;
44126;SDS011;29786;50.798;7.302;2023-07-24T05:01:18;5;;;3.5;;
44126;SDS011;29786;50.798;7.302;2023-07-24T05:02:18;5.1;;;3.5;;
44126;SDS011;29786;50.798;7.302;2023-07-24T05:03:18;6.8;;;3.9;;
44126;SDS011;29786;50.798;7.302;2023-07-24T05:04:18;6.1;;;3.6;;
44126;SDS011;29786;50.798;7.302;2023-07-24T05:05:19;5.2;;;3.5;;
44126;SDS011;29786;50.798;7.302;2023-07-24T05:06:18;4.9;;;3.4;;
44126;SDS011;29786;50.798;7.302;2023-07-24T05:07:18;5.4;;;3.8;;
44126;SDS011;29786;50.798;7.302;2023-07-24T05:08:19;6.1;;;3.8;;
44126;SDS011;29786;50.798;7.302;2023-07-24T05:09:18;6.1;;;3.9;;
44126;SDS011;29786;50.798;7.302;2023-07-24T05:10:19;5.7;;;3.8;;
44126;SDS011;29786;50.798;7.302;2023-07-24T05:11:19;5.4;;;3.7;;
44126;SDS011;29786;50.798;7.302;2023-07-24T05:12:19;6.9;;;3.7;;
44126;SDS011;29786;50.798;7.302;2023-07-24T05:13:18;6.2;;;3.6;;
44126;SDS011;29786;50.798;7.302;2023-07-24T05:14:18;5.1;;;3.8;;
44126;SDS011;29786;50.798;7.302;2023-07-24T05:15:18;4.6;;;3.8;;
44126;SDS011;29786;50.798;7.302;2023-07-24T05:16:18;5.9;;;3.8;;
44126;SDS011;29786;50.798;7.302;2023-07-24T05:17:19;7.6;;;3.9;;
44126;SDS011;29786;50.798;7.302;2023-07-24T05:18:18;7.5;;;3.9;;
44126;SDS011;29786;50.798;7.302;2023-07-24T05:19:19;5.3;;;4.2;;
44126;SDS011;29786;50.798;7.302;2023-07-24T05:20:17;5.8;;;3.7;;
44126;SDS011;29786;50.798;7.302;2023-07-24T05:21:19;6.7;;;4.1;;
44126;SDS011;29786;50.798;7.302;2023-07-24T05:22:18;9.1;;;3.6;;
44126;SDS011;29786;50.798;7.302;2023-07-24T05:23:18;7.6;;;4.1;;
44126;SDS011;29786;50.798;7.302;2023-07-24T05:24:18;5;;;3.9;;
44126;SDS011;29786;50.798;7.302;2023-07-24T05:25:18;6.2;;;4;;
44126;SDS011;29786;50.798;7.302;2023-07-24T05:26:19;6.2;;;3.6;;
44126;SDS011;29786;50.798;7.302;2023-07-24T05:27:18;5.2;;;3.8;;
44126;SDS011;29786;50.798;7.302;2023-07-24T05:28:19;6.1;;;3.8;;
44126;SDS011;29786;50.798;7.302;2023-07-24T05:29:18;5;;;4;;
44126;SDS011;29786;50.798;7.302;2023-07-24T05:30:19;4.6;;;3.6;;
44126;SDS011;29786;50.798;7.302;2023-07-24T05:31:20;5.3;;;4;;
44126;SDS011;29786;50.798;7.302;2023-07-24T05:32:19;5;;;4.1;;
44126;SDS011;29786;50.798;7.302;2023-07-24T05:33:19;5.7;;;3.9;;
44126;SDS011;29786;50.798;7.302;2023-07-24T05:34:19;5;;;3.7;;
44126;SDS011;29786;50.798;7.302;2023-07-24T05:35:19;6.2;;;4.2;;
44126;SDS011;29786;50.798;7.302;2023-07-24T05:36:19;5.7;;;4.2;;
44126;SDS011;29786;50.798;7.302;2023-07-24T05:37:19;5;;;3.8;;
44126;SDS011;29786;50.798;7.302;2023-07-24T05:38:19;7.3;;;3.9;;
44126;SDS011;29786;50.798;7.302;2023-07-24T05:39:18;6;;;3.8;;
44126;SDS011;29786;50.798;7.302;2023-07-24T05:40:19;5.8;;;3.8;;
44126;SDS011;29786;50.798;7.302;2023-07-24T05:41:18;6.6;;;4;;
44126;SDS011;29786;50.798;7.302;2023-07-24T05:42:19;7.7;;;4.1;;
44126;SDS011;29786;50.798;7.302;2023-07-24T05:43:19;5.6;;;3.6;;
44126;SDS011;29786;50.798;7.302;2023-07-24T05:44:19;4.2;;;3.3;;
44126;SDS011;29786;50.798;7.302;2023-07-24T05:45:19;5.6;;;3.5;;
44126;SDS011;29786;50.798;7.302;2023-07-24T05:46:19;7.6;;;3.8;;
44126;SDS011;29786;50.798;7.302;2023-07-24T05:47:18;5.4;;;3.8;;
44126;SDS011;29786;50.798;7.302;2023-07-24T05:48:18;7.6;;;4;;
44126;SDS011;29786;50.798;7.302;2023-07-24T05:49:18;4.3;;;3.5;;
44126;SDS011;29786;50.798;7.302;2023-07-24T05:50:19;6.6;;;3.8;;
44126;SDS011;29786;50.798;7.302;2023-07-24T05:51:18;7.2;;;4.2;;
44126;SDS011;29786;50.798;7.302;2023-07-24T05:52:19;6.8;;;3.5;;
44126;SDS011;29786;50.798;7.302;2023-07-24T05:53:19;6.3;;;4.1;;
44126;SDS011;29786;50.798;7.302;2023-07-24T05:54:18;6.6;;;3.5;;
44126;SDS011;29786;50.798;7.302;2023-07-24T05:55:19;5.4;;;3.7;;
44126;SDS011;29786;50.798;7.302;2023-07-24T05:56:19;4.9;;;3.7;;
44126;SDS011;29786;50.798;7.302;2023-07-24T05:57:19;5.6;;;3.6;;
44126;SDS011;29786;50.798;7.302;2023-07-24T05:58:19;6.2;;;4;;
44126;SDS011;29786;50.798;7.302;2023-07-24T05:59:18;6.3;;;3.8;;
44126;SDS011;29786;50.798;7.302;2023-07-24T06:00:19;5.2;;;3.9;;
44126;SDS011;29786;50.798;7.302;2023-07-24T06:01:18;5.8;;;4;;
44126;SDS011;29786;50.798;7.302;2023-07-24T06:02:18;5.6;;;3.8;;
44126;SDS011;29786;50.798;7.302;2023-07-24T06:03:18;7.4;;;3.9;;
44126;SDS011;29786;50.798;7.302;2023-07-24T06:04:19;8.5;;;4.1;;
44126;SDS011;29786;50.798;7.302;2023-07-24T06:05:19;6.9;;;4.2;;
44126;SDS011;29786;50.798;7.302;2023-07-24T06:06:18;5.9;;;4;;
44126;SDS011;29786;50.798;7.302;2023-07-24T06:07:18;5.7;;;3.9;;
44126;SDS011;29786;50.798;7.302;2023-07-24T06:08:19;5.9;;;4.1;;
44126;SDS011;29786;50.798;7.302;2023-07-24T06:09:18;4.5;;;3.7;;
44126;SDS011;29786;50.798;7.302;2023-07-24T06:10:18;5.8;;;3.9;;
44126;SDS011;29786;50.798;7.302;2023-07-24T06:11:19;5.7;;;4.1;;
44126;SDS011;29786;50.798;7.302;2023-07-24T06:12:18;5.6;;;3.7;;
44126;SDS011;29786;50.798;7.302;2023-07-24T06:13:19;7.7;;;3.9;;
44126;SDS011;29786;50.798;7.302;2023-07-24T06:14:18;6.2;;;3.9;;
44126;SDS011;29786;50.798;7.302;2023-07-24T06:15:19;5.5;;;3.9;;
44126;SDS011;29786;50.798;7.302;2023-07-24T06:16:19;5.1;;;4;;